AIRTAXI Virtual Airline

 METAR AND TAF INFORMATION
METAR FOR EDDV
ADDS - METARS form results

(0101 UTC 21 August 2019)
Data provider http://aviationweather.gov/metar/data/
 
METAR text: EDDV 210050Z 25005KT CAVOK 13/11 Q1026
Conditions at: EDDV (HANNOVER , DE) observed 0050 UTC 21 August 2019
Temperature: 13.0°C (55°F)
Dewpoint: 11.0°C (52°F) [RH = 88%]
Pressure (altimeter): 30.30 inches Hg (1026.0 mb)
Winds: from the WSW (250 degrees) at 6 MPH (5 knots; 2.6 m/s)
Visibility: 6 or more miles (10+ km)
Ceiling: ceiling and visibility are OK
Clouds: unknown
Weather: no significant weather observed at this time

METAR text: EDDV 210020Z 25005KT CAVOK 14/11 Q1026
Conditions at: EDDV (HANNOVER , DE) observed 0020 UTC 21 August 2019
Temperature: 14.0°C (57°F)
Dewpoint: 11.0°C (52°F) [RH = 82%]
Pressure (altimeter): 30.30 inches Hg (1026.0 mb)
Winds: from the WSW (250 degrees) at 6 MPH (5 knots; 2.6 m/s)
Visibility: 6 or more miles (10+ km)
Ceiling: ceiling and visibility are OK
Clouds: unknown
Weather: no significant weather observed at this time

Forecast for: EDDV (HANNOVER , DE)
Text: TAF EDDV 202300Z 2100/2124 24005KT 9999 SCT045
Forecast period: 0000 UTC 21 August 2019 to 0000 UTC 22 August 2019
Forecast type: FROM: standard forecast or significant change
Winds: from the WSW (240 degrees) at 6 MPH (5 knots; 2.6 m/s)
Visibility: 6 or more miles 10+ km)
Ceiling: at least 12,000 feet AGL
Clouds: scattered clouds at 4500 feet AGL
Weather: no significant weather forecast for this period

 AIRPORT MAP

 RUNWAY INFORMATION
Runway 09C Runway length 2559 ft Runway width 74 ft
Runway elevation 178 ft Runway displaced threshold 214 ft Runway heading 92
Runway 27C Runway length 2559 ft Runway width 74 ft
Runway elevation 174 ft Runway displaced threshold 541 ft Runway heading 272
Runway 09L Runway length 12467 ft Runway width 148 ft
Runway elevation 167 ft Runway displaced threshold 984 ft Runway heading 93
Runway 27R Runway length 12467 ft Runway width 148 ft
Runway elevation 169 ft Runway displaced threshold 984 ft Runway heading 273
Runway 09R Runway length 7677 ft Runway width 148 ft
Runway elevation 172 ft Runway displaced threshold 0 ft Runway heading 93
Runway 27L Runway length 7677 ft Runway width 148 ft
Runway elevation 179 ft Runway displaced threshold 0 ft Runway heading 273

 AIRPORT FREQUENCIES
Type APP Name DIRECTOR Frequency 119.6 MHZ
Type ATIS Name ATIS Frequency 132.125 MHZ
Type GND Name GND Frequency 121.95 MHZ
Type INFO Name BREMEN INF Frequency 119.825 MHZ
Type RDR Name BREMEN RAD Frequency 131.325 MHZ
Type TWR Name TWR Frequency 120.175 MHZ

 AIRPORT NEAR NAVIGATION AIDS
Type NDB Name Hannover Frequency 320 KHZ
Type DME Name Hannover Frequency 113950 KHZ
Type NDB Name Hannover Frequency 332 KHZ
Type DME Name Hannover Frequency 116900 KHZ
Type NDB Name Hannover Frequency 358 KHZ